Terminal Aerodrome Forecast
Issued by NWS Wakefield, VA

Home | Current Version | Previous Version | Text Only | Print | Product List | Glossary On
Versions: 1 2 3 4 5 6 7 8 9 10 11 12 13 14 15 16 17 18 19 20 21 22 23 24 25 26 27 28 29 30 31 32 33 34 35 36 37 38 39 40 41 42 43
782
FTUS41 KAKQ 010522
TAFRIC
TAF
KRIC 010522Z 0106/0206 11006KT P6SM VCSH OVC004
      TEMPO 0106/0108 3SM SHRA BR OVC002
     FM010900 VRB03KT 2SM BR OVC003
     FM011200 18003KT 5SM BR OVC007
     FM011500 19005KT P6SM BKN025 OVC050
     FM011800 19007KT P6SM SCT050 BKN120
     FM012300 VRB03KT P6SM BKN150=

USA.gov is the U.S. government's official web portal to all federal, state and local government web resources and services.